Avisos AEMET Campiña SevillanaSin Avisos+ INFO
Sevilla, Andalucía, España
Idioma: es English Français Deutsch Italiano Português Español
 

Informes METAR

 

LEZL - Sevilla, Spain
Distancia de la estación: ENE 8km
Actualización: 30/01/2023 00:00
Despejado
Despejado
 Viento de NE
Viento: NE 11 km/h
Temperatura: 4°C
Sensación térmica: 1°C
Rocío: 0°C
Humedad: 75%
Barómetro: 1024 hPa
Resumen: Despejado
Visibilidad: mayor de 10 km
2023/01/29 23:00 LEZL 292300Z 04006KT CAVOK 04/M00 Q1024 NOSIG
LEMO - Morón, Spain
Distancia de la estación: SE 43km
Actualización: 30/01/2023 00:00
Despejado
Despejado
 Viento de N
Viento: N 6 km/h
Temperatura: 0°C
Rocío: -3°C
Humedad: 80%
Barómetro: 1024 hPa
Resumen: Despejado
Visibilidad: mayor de 10 km
2023/01/29 23:00 LEMO 292300Z 36003KT CAVOK 00/M03 Q1024 NOSIG
LEJR - Jeréz, Spain
Distancia de la estación: S 71km
Actualización: 30/01/2023 00:00
Despejado
Despejado
 Viento de variable
Viento: variable 2 km/h
Temperatura: 7°C
Rocío: 5°C
Humedad: 87%
Barómetro: 1024 hPa
Resumen: Despejado
Visibilidad: mayor de 10 km
2023/01/29 23:00 LEJR 292300Z AUTO VRB01KT CAVOK 07/05 Q1024
 
LERT - Rota, Spain
Distancia de la estación: SSO 89km
Actualización: 30/01/2023 00:00
Despejado
Despejado
 Viento de E
Viento: E 4 km/h
Temperatura: 8°C
Rocío: 5°C
Humedad: 82%
Barómetro: 1024 hPa
Resumen: Despejado
Visibilidad: mayor de 10 km
2023/01/29 23:00 LERT 292300Z 08002KT CAVOK 08/05 Q1024 NOSIG
LEMG - Málaga, Spain
Distancia de la estación: ESE 157km
Actualización: 30/01/2023 00:00
Muy nuboso
Muy nuboso
 Viento de NNE
Viento: NNE 7 km/h
Temperatura: 9°C
Sensación térmica: 8°C
Rocío: 7°C
Humedad: 87%
Barómetro: 1026 hPa
Nubes: Muy nuboso
Visibilidad: 10 km
Detalles de las nubes: Poco nuboso 549 m
Parcialmente nuboso 1676 m
Muy nuboso 2438 m
2023/01/29 23:00 LEMG 292300Z 02004KT 330V110 9999 FEW018 SCT055 BKN080 09/07 Q1026 NOSIG
LEBA - Córdoba, Spain
Distancia de la estación: ENE 115km
Actualización: 30/01/2023 00:00
Despejado
Despejado
 Viento de calm
Viento: Calma
Temperatura: 1°C
Rocío: -2°C
Humedad: 81%
Barómetro: 1025 hPa
Resumen: Despejado
Visibilidad: mayor de 10 km
2023/01/29 23:00 LEBA 292300Z AUTO 00000KT CAVOK 01/M02 Q1025
 
LEGR - Granada, Spain
Distancia de la estación: E 198km
Actualización: 30/01/2023 00:00
Muy nuboso
Muy nuboso
 Viento de calm
Viento: Calma
Temperatura: 2°C
Rocío: 0°C
Humedad: 87%
Barómetro: 1024 hPa
Nubes: Muy nuboso
Visibilidad: 10 km
Detalles de las nubes: Muy nuboso 2438 m
2023/01/29 23:00 LEGR 292300Z AUTO 00000KT 9999 BKN080 02/00 Q1024
LEAM - Almería, Spain
Distancia de la estación: E 326km
Actualización: 30/01/2023 00:00
Poco nuboso
Poco nuboso
 Viento de N
Viento: N 7 km/h
Temperatura: 9°C
Sensación térmica: 8°C
Rocío: 3°C
Humedad: 66%
Barómetro: 1026 hPa
Nubes: Poco nuboso
Visibilidad: 10 km
Detalles de las nubes: Poco nuboso 2957 m
2023/01/29 23:00 LEAM 292300Z AUTO 36004KT 320V070 9999 FEW097 09/03 Q1026
LEMD - Madrid/Barajas, Spain
Distancia de la estación: NNE 402km
Actualización: 30/01/2023 00:00
Despejado
Despejado
 Viento de NNO
Viento: NNO 9 km/h
Temperatura: 0°C
Sensación térmica: -3°C
Rocío: -5°C
Humedad: 69%
Barómetro: 1027 hPa
Resumen: Despejado
Visibilidad: mayor de 10 km
2023/01/29 23:00 LEMD 292300Z 34005KT CAVOK 00/M05 Q1027 NOSIG
 
LEVD - Valladolid, Spain
Distancia de la estación: N 492km
Actualización: 30/01/2023 00:00
Despejado
Despejado
 Viento de ENE
Viento: ENE 20 km/h
Temperatura: -1°C
Sensación térmica: -7°C
Rocío: -4°C
Humedad: 80%
Barómetro: 1026 hPa
Resumen: Despejado
Visibilidad: mayor de 10 km
2023/01/29 23:00 LEVD 292300Z AUTO 07011KT CAVOK M01/M04 Q1026
LEBL - Barcelona, Spain
Distancia de la estación: NE 816km
Actualización: 30/01/2023 00:00
Despejado
Despejado
 Viento de NO
Viento: NO 15 km/h
Temperatura: 4°C
Sensación térmica: 1°C
Rocío: -2°C
Humedad: 65%
Barómetro: 1027 hPa
Resumen: Despejado
Visibilidad: mayor de 10 km
2023/01/29 23:00 LEBL 292300Z 32008KT CAVOK 04/M02 Q1027 NOSIG
LEVC - Valencia, Spain
Distancia de la estación: ENE 535km
Actualización: 30/01/2023 00:00
Poco nuboso
Poco nuboso
 Viento de SSO
Viento: SSO 7 km/h
Temperatura: 6°C
Sensación térmica: 4°C
Rocío: 4°C
Humedad: 87%
Barómetro: 1028 hPa
Nubes: Poco nuboso
Visibilidad: 10 km
Detalles de las nubes: Poco nuboso 1067 m
2023/01/29 23:00 LEVC 292300Z 20004KT 9999 FEW035 06/04 Q1028 NOSIG